This is the latest recevied weather packets stored in our database for station/object FHDOHA-13. If no packets are shown the sender has not sent any weather packets the latest 10 day(s).
| Time | Temp. | Humidity | Pressure | Rain* | Wind** | Luminosity | Snow |
|---|---|---|---|---|---|---|---|
| 1777362372 | 12.22° C | 50% | 1023.1 hPa | 0 mm | - | - | - |
| 1777361472 | 11.67° C | 51% | 1023.2 hPa | 0 mm | - | - | - |
| 1777360572 | 11.11° C | 54% | 1023.2 hPa | 0 mm | - | - | - |
| 1777359672 | 11.11° C | 53% | 1023.2 hPa | 0 mm | - | - | - |
| 1777358772 | 12.78° C | 51% | 1023 hPa | 0 mm | - | - | - |
| 1777357872 | 13.33° C | 52% | 1023 hPa | 0 mm | - | - | - |
| 1777356972 | 12.22° C | 58% | 1023.1 hPa | 0 mm | - | - | - |
| 1777356072 | 10.56° C | 66% | 1022.3 hPa | 0 mm | - | - | - |
| 1777355172 | 7.22° C | 68% | 1022.6 hPa | 0 mm | - | - | - |
| 1777354272 | 7.22° C | 68% | 1022.6 hPa | 0 mm | - | - | - |
| 1777353372 | 6.67° C | 68% | 1022.7 hPa | 0 mm | - | - | - |
| 1777352472 | 6.67° C | 68% | 1022.7 hPa | 0 mm | - | - | - |
| 1777351572 | 6.11° C | 68% | 1022.7 hPa | 0 mm | - | - | - |
| 1777350672 | 6.11° C | 68% | 1022.7 hPa | 0 mm | - | - | - |
| 1777349772 | 6.11° C | 68% | 1022.7 hPa | 0 mm | - | - | - |
| 1777348872 | 6.11° C | 67% | 1022.7 hPa | 0 mm | - | - | - |
| 1777347972 | 6.11° C | 67% | 1022.7 hPa | 0 mm | - | - | - |
| 1777347072 | 6.11° C | 66% | 1022.7 hPa | 0 mm | - | - | - |
| 1777346172 | 6.67° C | 64% | 1022.7 hPa | 0 mm | - | - | - |
| 1777345272 | 6.67° C | 64% | 1022.7 hPa | 0 mm | - | - | - |
| 1777344372 | 6.67° C | 64% | 1022.7 hPa | 0 mm | - | - | - |
| 1777343472 | 6.67° C | 62% | 1022.6 hPa | 0 mm | - | - | - |
| 1777342572 | 7.22° C | 60% | 1022.6 hPa | 0 mm | - | - | - |
| 1777341672 | 7.78° C | 59% | 1022.6 hPa | 0 mm | - | - | - |
| 1777340772 | 7.78° C | 58% | 1022.6 hPa | 0 mm | - | - | - |
* Rain latest hour (hover to see other rain measurements)
** Current wind speed in m/s (hover to see current wind gust speed)